Time;durP1;ratioP1;P1;durP2;ratioP2;P2;SDS_P1;SDS_P2;PMS_P1;PMS_P2;Temp;Humidity;BMP_temperature;BMP_pressure;BME280_temperature;BME280_humidity;BME280_pressure;Samples;Min_cycle;Max_cycle;Signal;HPM_P1;HPM_P2
2022/05/06 00:01:03;;;;;;;23.63;17.05;;;10.10;99.90;;;;;;4973866;28;20050;-72
2022/05/06 00:03:29;;;;;;;26.27;16.92;;;10.10;99.90;;;;;;4974073;28;20452;-72
2022/05/06 00:05:55;;;;;;;23.60;17.13;;;10.00;99.90;;;;;;4973834;28;20523;-72
2022/05/06 00:08:20;;;;;;;24.92;17.05;;;10.00;99.90;;;;;;4973986;28;20408;-72
2022/05/06 00:10:46;;;;;;;25.48;16.30;;;10.00;99.90;;;;;;4975058;28;20501;-72
2022/05/06 00:13:12;;;;;;;24.10;17.23;;;10.00;99.90;;;;;;4975101;28;20382;-72
2022/05/06 00:15:38;;;;;;;23.58;16.38;;;10.00;99.90;;;;;;4973774;28;20513;-72
2022/05/06 00:18:03;;;;;;;15.95;11.18;;;9.90;99.90;;;;;;4973829;28;20461;-72
2022/05/06 00:20:29;;;;;;;10.75;9.02;;;9.90;99.90;;;;;;4973430;28;20409;-72
2022/05/06 00:22:57;;;;;;;22.35;15.73;;;9.80;99.90;;;;;;4973011;28;20525;-72
2022/05/06 00:25:26;;;;;;;13.13;10.43;;;9.80;99.90;;;;;;4973643;28;20043;-72
2022/05/06 00:27:52;;;;;;;14.27;11.43;;;9.70;99.90;;;;;;4974870;28;20049;-72
2022/05/06 00:30:18;;;;;;;15.07;11.77;;;9.60;99.90;;;;;;4973385;28;20047;-72
2022/05/06 00:32:44;;;;;;;16.80;12.73;;;9.60;99.90;;;;;;4973563;28;20601;-72
2022/05/06 00:35:09;;;;;;;16.55;12.45;;;9.50;99.90;;;;;;4973362;28;20130;-72
2022/05/06 00:37:35;;;;;;;17.83;13.05;;;9.50;99.90;;;;;;4973502;28;20564;-72
2022/05/06 00:40:01;;;;;;;10.88;8.82;;;9.50;99.90;;;;;;4974382;28;20545;-72
2022/05/06 00:42:27;;;;;;;10.35;7.75;;;9.50;99.90;;;;;;4973349;28;20404;-72
2022/05/06 00:44:53;;;;;;;10.15;7.25;;;9.40;99.90;;;;;;4973298;28;20481;-72
2022/05/06 00:47:22;;;;;;;13.95;9.13;;;9.30;99.90;;;;;;4974553;28;20038;-72
2022/05/06 00:49:48;;;;;;;14.68;10.50;;;9.30;99.90;;;;;;4973248;28;20124;-72
2022/05/06 00:52:17;;;;;;;21.08;14.73;;;9.20;99.90;;;;;;4973161;28;20054;-72
2022/05/06 00:54:43;;;;;;;24.02;15.95;;;9.20;99.90;;;;;;4973355;28;20070;-72
2022/05/06 00:57:09;;;;;;;23.60;16.60;;;9.20;99.90;;;;;;4974290;28;20130;-72
2022/05/06 01:02:20;;;;;;;22.05;15.68;;;9.20;99.90;;;;;;4973812;28;20047;-71
2022/05/06 01:04:46;;;;;;;25.20;17.02;;;9.10;99.90;;;;;;4973786;28;20045;-71
2022/05/06 01:07:13;;;;;;;25.98;17.08;;;9.10;99.90;;;;;;4973252;28;20045;-71
2022/05/06 01:09:39;;;;;;;27.25;16.45;;;9.20;99.90;;;;;;4972742;28;20053;-70
2022/05/06 01:12:05;;;;;;;14.02;11.20;;;9.20;99.90;;;;;;4972861;28;20409;-71
2022/05/06 01:14:33;;;;;;;14.98;10.80;;;9.10;99.90;;;;;;4972714;28;20038;-70
2022/05/06 01:16:58;;;;;;;13.30;10.88;;;9.00;99.90;;;;;;4972503;28;20053;-71
2022/05/06 01:19:24;;;;;;;16.00;12.38;;;8.90;99.90;;;;;;4972709;28;20485;-70
2022/05/06 01:21:52;;;;;;;12.73;10.25;;;8.90;99.90;;;;;;4972417;28;20533;-71
2022/05/06 01:24:18;;;;;;;12.98;11.07;;;8.90;99.90;;;;;;4972609;28;20510;-71
2022/05/06 01:26:58;;;;;;;15.80;11.13;;;8.90;99.90;;;;;;4973704;28;20059;-71
2022/05/06 01:29:26;;;;;;;19.73;14.05;;;8.80;99.90;;;;;;4972502;28;20143;-70
2022/05/06 01:31:53;;;;;;;19.02;14.20;;;8.80;99.90;;;;;;4956348;28;20054;-71
2022/05/06 01:34:23;;;;;;;25.90;14.30;;;8.80;99.90;;;;;;4972726;28;20043;-71
2022/05/06 01:36:53;;;;;;;19.27;14.77;;;8.80;99.90;;;;;;4972275;28;20049;-70
2022/05/06 01:39:23;;;;;;;18.67;14.32;;;8.80;99.90;;;;;;4972373;28;20046;-71
2022/05/06 01:41:53;;;;;;;22.92;15.85;;;8.80;99.90;;;;;;4973367;28;20049;-70
2022/05/06 01:44:22;;;;;;;24.48;16.05;;;8.80;99.90;;;;;;4972320;28;20039;-70
2022/05/06 01:46:47;;;;;;;24.30;16.20;;;8.80;99.90;;;;;;4972206;28;20177;-71
2022/05/06 01:49:15;;;;;;;20.25;15.43;;;8.70;99.90;;;;;;4971278;28;20066;-71
2022/05/06 01:51:43;;;;;;;19.80;15.65;;;8.80;99.90;;;;;;4972189;28;20078;-71
2022/05/06 01:54:09;;;;;;;15.27;12.77;;;8.80;99.90;;;;;;4972047;28;20050;-71
2022/05/06 01:56:35;;;;;;;11.02;9.02;;;8.80;99.90;;;;;;4957766;28;20105;-71
2022/05/06 01:59:01;;;;;;;11.38;9.07;;;8.70;99.90;;;;;;4967516;28;20047;-70
2022/05/06 02:01:27;;;;;;;9.38;7.85;;;8.70;99.90;;;;;;4950433;29;20043;-71
2022/05/06 02:06:37;;;;;;;10.93;8.20;;;8.60;99.90;;;;;;4950339;29;20058;-70
2022/05/06 02:09:03;;;;;;;5.72;5.05;;;8.50;99.90;;;;;;4951891;29;20051;-71
2022/05/06 02:11:28;;;;;;;7.43;5.30;;;8.50;99.90;;;;;;4966815;28;20043;-71
2022/05/06 02:13:55;;;;;;;8.05;6.85;;;8.40;99.90;;;;;;4967912;28;20545;-71
2022/05/06 02:16:21;;;;;;;12.38;7.53;;;8.30;99.90;;;;;;4953691;28;20098;-70
2022/05/06 02:18:46;;;;;;;10.95;9.25;;;8.30;99.90;;;;;;4952790;29;20043;-71
2022/05/06 02:21:12;;;;;;;8.63;6.82;;;8.20;99.90;;;;;;4952323;29;20049;-71
2022/05/06 02:23:38;;;;;;;13.32;9.40;;;8.20;99.90;;;;;;4952682;29;20471;-71
2022/05/06 02:26:04;;;;;;;11.25;8.85;;;8.10;99.90;;;;;;4968722;28;20055;-71
2022/05/06 02:28:29;;;;;;;12.77;9.43;;;8.00;99.90;;;;;;4968793;28;20047;-71
2022/05/06 02:33:39;;;;;;;19.67;14.02;;;8.00;99.90;;;;;;4953103;29;20094;-71
2022/05/06 02:36:06;;;;;;;18.23;14.18;;;8.00;99.90;;;;;;4953604;29;20043;-72
2022/05/06 02:38:31;;;;;;;16.23;12.50;;;8.00;99.90;;;;;;4953585;29;20512;-71
2022/05/06 02:40:57;;;;;;;17.75;13.52;;;8.00;99.90;;;;;;4953998;29;20051;-71
2022/05/06 02:43:23;;;;;;;17.88;12.85;;;8.00;99.90;;;;;;4953263;29;20156;-71
2022/05/06 02:45:48;;;;;;;18.15;13.07;;;8.00;99.90;;;;;;4953794;28;20043;-71
2022/05/06 02:48:14;;;;;;;19.30;14.32;;;8.00;99.90;;;;;;4957192;29;20043;-71
2022/05/06 02:50:41;;;;;;;19.77;15.82;;;8.00;99.90;;;;;;4956676;29;20047;-72
2022/05/06 02:53:07;;;;;;;23.70;16.75;;;8.00;99.90;;;;;;4958053;28;20126;-71
2022/05/06 02:55:33;;;;;;;18.25;13.90;;;8.00;99.90;;;;;;4972852;28;20050;-71
2022/05/06 02:57:59;;;;;;;19.38;14.18;;;8.00;99.90;;;;;;4956848;29;20051;-71
2022/05/06 03:00:24;;;;;;;23.00;17.27;;;8.00;99.90;;;;;;4956871;29;20039;-71
2022/05/06 03:02:50;;;;;;;28.85;16.75;;;8.00;99.90;;;;;;4957729;29;20397;-71
2022/05/06 03:05:16;;;;;;;23.33;15.88;;;8.00;99.90;;;;;;4956417;29;20043;-72
2022/05/06 03:07:42;;;;;;;25.05;16.38;;;8.00;99.90;;;;;;4956433;29;20047;-71
2022/05/06 03:10:09;;;;;;;24.83;17.92;;;8.00;99.90;;;;;;4956006;29;20055;-71
2022/05/06 03:12:35;;;;;;;23.20;16.63;;;8.00;99.90;;;;;;4956590;29;20035;-71
2022/05/06 03:15:04;;;;;;;23.38;15.75;;;8.00;99.90;;;;;;4957451;28;20035;-71
2022/05/06 03:17:31;;;;;;;10.10;9.10;;;8.00;99.90;;;;;;4956422;29;20047;-71
2022/05/06 03:19:57;;;;;;;8.45;5.85;;;7.90;99.90;;;;;;4956242;29;20050;-71
2022/05/06 03:22:23;;;;;;;21.00;16.52;;;7.80;99.90;;;;;;4956616;29;20051;-72
2022/05/06 03:24:48;;;;;;;24.67;16.20;;;7.80;99.90;;;;;;4955664;29;20049;-72
2022/05/06 03:29:58;;;;;;;13.52;11.02;;;7.70;99.90;;;;;;4955123;29;20051;-71
2022/05/06 03:32:24;;;;;;;12.60;10.27;;;7.60;99.90;;;;;;4955688;29;20047;-71
2022/05/06 03:34:50;;;;;;;19.67;7.63;;;7.60;99.90;;;;;;4956533;29;20504;-71
2022/05/06 03:37:16;;;;;;;9.38;6.60;;;7.50;99.90;;;;;;4955415;29;20501;-71
2022/05/06 03:39:42;;;;;;;9.68;7.25;;;7.40;99.90;;;;;;4955162;29;20143;-71
2022/05/06 03:42:07;;;;;;;20.80;9.23;;;7.40;99.90;;;;;;4955433;29;20170;-72
2022/05/06 03:44:33;;;;;;;15.07;9.07;;;7.40;99.90;;;;;;4955268;29;20050;-72
2022/05/06 03:46:59;;;;;;;66.40;9.55;;;7.40;99.90;;;;;;4971358;28;20047;-72
2022/05/06 03:49:25;;;;;;;117.40;7.35;;;7.40;99.90;;;;;;4971472;28;20047;-72
2022/05/06 03:51:50;;;;;;;25.40;5.22;;;7.40;99.90;;;;;;4956064;29;20118;-72
2022/05/06 03:54:16;;;;;;;69.93;4.90;;;7.30;99.90;;;;;;4971180;28;20409;-72
2022/05/06 03:56:42;;;;;;;44.20;5.40;;;7.20;99.90;;;;;;4954574;28;20059;-72
2022/05/06 03:59:07;;;;;;;6.28;5.38;;;7.10;99.90;;;;;;4970102;28;20055;-72
2022/05/06 04:01:33;;;;;;;9.13;6.25;;;7.10;99.90;;;;;;4955781;29;20043;-72
2022/05/06 04:03:59;;;;;;;8.48;6.95;;;7.10;99.90;;;;;;4955139;29;20135;-72
2022/05/06 04:06:26;;;;;;;11.20;7.70;;;7.10;99.90;;;;;;4955859;29;20091;-72
2022/05/06 04:08:51;;;;;;;13.60;8.00;;;7.10;99.90;;;;;;4954958;29;20572;-72
2022/05/06 04:11:19;;;;;;;11.80;8.00;;;7.10;99.90;;;;;;4970704;28;20089;-72
2022/05/06 04:13:45;;;;;;;12.70;8.02;;;7.20;99.90;;;;;;4955866;28;20565;-71
2022/05/06 04:16:10;;;;;;;7.38;6.22;;;7.20;99.90;;;;;;4970621;28;20123;-72
2022/05/06 04:18:36;;;;;;;8.50;6.40;;;7.20;99.90;;;;;;4971100;28;20050;-72
2022/05/06 04:23:45;;;;;;;13.55;7.63;;;7.20;99.90;;;;;;4954315;29;20478;-72
2022/05/06 04:26:11;;;;;;;25.20;8.23;;;7.10;99.90;;;;;;4970758;28;20047;-72
2022/05/06 04:28:37;;;;;;;45.58;9.80;;;7.10;99.90;;;;;;4970401;28;20047;-71
2022/05/06 04:31:04;;;;;;;15.80;9.85;;;7.10;99.90;;;;;;4954340;29;20051;-71
2022/05/06 04:33:30;;;;;;;7.85;6.43;;;7.10;99.90;;;;;;4955615;28;20402;-71
2022/05/06 04:35:57;;;;;;;9.32;6.70;;;7.10;99.90;;;;;;4954228;29;20047;-71
2022/05/06 04:38:23;;;;;;;34.13;9.57;;;7.00;99.90;;;;;;4954497;29;20458;-71
2022/05/06 04:40:51;;;;;;;11.18;9.13;;;7.00;99.90;;;;;;4954089;29;20393;-71
2022/05/06 04:43:18;;;;;;;16.23;10.65;;;7.00;99.90;;;;;;4955466;28;20050;-71
2022/05/06 04:45:44;;;;;;;15.40;8.65;;;7.10;99.90;;;;;;4954341;29;20391;-71
2022/05/06 04:48:11;;;;;;;9.65;6.60;;;7.10;99.90;;;;;;4970382;28;20123;-71
2022/05/06 04:50:38;;;;;;;8.50;5.65;;;7.10;99.90;;;;;;4954889;28;20113;-71
2022/05/06 04:53:07;;;;;;;5.97;5.32;;;7.20;99.90;;;;;;4954244;29;20039;-71
2022/05/06 04:55:41;;;;;;;10.55;7.68;;;7.20;99.90;;;;;;4955018;28;20047;-71
2022/05/06 04:58:07;;;;;;;11.95;9.30;;;7.20;99.90;;;;;;4953845;29;20050;-71
2022/05/06 05:00:33;;;;;;;10.23;8.10;;;7.20;99.90;;;;;;4953768;29;20069;-71
2022/05/06 05:03:00;;;;;;;14.10;9.93;;;7.20;99.90;;;;;;4953957;29;20494;-71
2022/05/06 05:05:26;;;;;;;13.70;9.48;;;7.20;99.90;;;;;;4953753;29;20043;-70
2022/05/06 05:07:53;;;;;;;21.80;13.05;;;7.20;99.90;;;;;;4953743;29;20524;-71
2022/05/06 05:10:19;;;;;;;69.80;22.52;;;7.20;99.90;;;;;;4953083;28;20047;-71
2022/05/06 05:12:44;;;;;;;107.35;27.40;;;7.30;99.90;;;;;;4953784;29;20513;-71
2022/05/06 05:15:10;;;;;;;120.97;27.30;;;7.40;99.90;;;;;;4953359;29;20523;-71
2022/05/06 05:17:36;;;;;;;182.25;29.83;;;7.50;99.90;;;;;;4961933;28;20038;-71
2022/05/06 05:20:02;;;;;;;294.27;32.13;;;7.60;99.90;;;;;;4972422;28;20494;-71
2022/05/06 05:22:28;;;;;;;196.48;30.67;;;7.70;99.90;;;;;;4972595;28;20077;-71
2022/05/06 05:24:54;;;;;;;144.50;29.13;;;7.70;99.90;;;;;;4972479;28;20564;-71
2022/05/06 05:27:20;;;;;;;186.25;29.55;;;7.70;99.90;;;;;;4972575;28;20074;-71
2022/05/06 05:29:45;;;;;;;150.55;30.08;;;7.80;99.90;;;;;;4972327;28;20819;-71
2022/05/06 05:32:11;;;;;;;115.45;27.33;;;7.90;99.90;;;;;;4973220;28;20555;-71
2022/05/06 05:34:37;;;;;;;86.93;25.42;;;8.00;99.90;;;;;;4972008;28;20101;-71
2022/05/06 05:37:03;;;;;;;205.38;28.80;;;8.10;99.90;;;;;;4971725;28;20046;-71
2022/05/06 05:39:31;;;;;;;116.18;27.95;;;8.20;99.90;;;;;;4971643;28;20417;-71
2022/05/06 05:41:57;;;;;;;99.85;23.15;;;8.30;99.90;;;;;;4971922;28;20034;-71
2022/05/06 05:49:50;;;;;;;63.47;24.00;;;8.60;99.90;;;;;;4971950;28;20089;-71
2022/05/06 05:52:16;;;;;;;72.28;22.08;;;8.70;99.90;;;;;;4988093;28;20409;-71
2022/05/06 05:54:42;;;;;;;51.65;21.27;;;8.90;99.90;;;;;;4987941;28;20308;-71
2022/05/06 05:57:07;;;;;;;73.03;21.90;;;8.90;99.90;;;;;;4968322;28;20418;-71
2022/05/06 05:59:33;;;;;;;51.70;22.02;;;9.00;99.90;;;;;;4969517;28;20045;-71
2022/05/06 06:02:01;;;;;;;54.80;21.95;;;9.20;99.90;;;;;;4969717;28;20121;-71
2022/05/06 06:04:27;;;;;;;78.93;22.52;;;9.30;99.90;;;;;;4969972;28;20045;-71
2022/05/06 06:06:53;;;;;;;83.68;23.17;;;9.40;99.90;;;;;;4985634;28;20042;-71
2022/05/06 06:09:22;;;;;;;95.22;23.45;;;9.50;99.90;;;;;;4969668;28;20525;-71
2022/05/06 06:11:49;;;;;;;62.42;20.55;;;9.60;99.90;;;;;;4969312;28;20053;-71
2022/05/06 06:14:16;;;;;;;83.75;21.58;;;9.70;99.90;;;;;;4969995;28;20043;-71
2022/05/06 06:16:42;;;;;;;92.18;22.95;;;9.90;99.90;;;;;;4971421;28;20519;-71
2022/05/06 06:19:07;;;;;;;97.65;24.48;;;10.00;99.90;;;;;;4972197;28;20528;-71
2022/05/06 06:21:33;;;;;;;136.23;22.65;;;10.00;99.90;;;;;;4972365;28;20081;-71
2022/05/06 06:23:59;;;;;;;68.43;23.33;;;10.20;99.90;;;;;;4971580;28;20117;-72
2022/05/06 06:26:25;;;;;;;143.75;24.33;;;10.20;99.90;;;;;;4987640;28;20154;-71
2022/05/06 06:28:50;;;;;;;143.52;24.98;;;10.30;99.90;;;;;;4987624;28;20195;-71
2022/05/06 06:31:16;;;;;;;83.70;23.58;;;10.40;99.90;;;;;;4971061;28;20053;-72
2022/05/06 06:33:42;;;;;;;71.38;25.08;;;10.40;99.90;;;;;;4972620;28;20031;-71
2022/05/06 06:36:09;;;;;;;75.25;27.55;;;10.50;99.90;;;;;;4972469;28;20045;-71
2022/05/06 06:38:34;;;;;;;76.07;28.35;;;10.60;99.90;;;;;;4971220;28;20038;-72
2022/05/06 06:41:00;;;;;;;161.57;32.08;;;10.70;99.90;;;;;;4972242;28;20118;-72
2022/05/06 06:43:26;;;;;;;107.53;32.58;;;10.80;99.90;;;;;;4987417;28;20069;-72
2022/05/06 06:45:52;;;;;;;86.43;33.50;;;10.90;99.90;;;;;;4971221;28;20042;-71
2022/05/06 06:48:18;;;;;;;81.78;33.97;;;11.00;99.90;;;;;;4971575;28;20116;-72
2022/05/06 06:50:43;;;;;;;89.85;34.03;;;11.00;99.90;;;;;;4972736;28;20130;-72
2022/05/06 06:53:09;;;;;;;63.03;34.55;;;11.00;99.90;;;;;;4971488;28;20074;-72
2022/05/06 06:55:35;;;;;;;70.00;34.05;;;11.10;99.90;;;;;;4955358;28;20054;-72
2022/05/06 06:58:01;;;;;;;72.88;35.50;;;11.20;99.90;;;;;;4971393;28;20043;-72
2022/05/06 07:00:27;;;;;;;71.78;36.90;;;11.20;99.90;;;;;;4970954;28;20039;-72
2022/05/06 07:02:55;;;;;;;67.97;36.72;;;11.30;99.90;;;;;;4955014;28;20035;-71
2022/05/06 07:05:22;;;;;;;69.47;36.40;;;11.40;99.90;;;;;;4971042;28;20079;-71
2022/05/06 07:13:17;;;;;;;82.22;39.08;;;11.50;99.90;;;;;;4970420;28;20043;-71
2022/05/06 07:15:43;;;;;;;65.30;36.22;;;11.60;99.90;;;;;;4971056;28;20050;-72
2022/05/06 07:18:09;;;;;;;64.13;36.92;;;11.60;99.90;;;;;;5010595;23;20404;-74
2022/05/06 07:20:34;;;;;;;65.97;35.70;;;11.60;99.90;;;;;;4978310;28;20046;-72
2022/05/06 07:23:00;;;;;;;57.80;33.97;;;11.60;99.90;;;;;;4971229;28;20038;-72
2022/05/06 07:25:26;;;;;;;57.30;35.35;;;11.70;99.90;;;;;;4971542;28;20054;-72
2022/05/06 07:27:51;;;;;;;56.60;34.20;;;11.70;99.90;;;;;;4971116;28;20109;-72
2022/05/06 07:30:17;;;;;;;58.95;35.25;;;11.80;99.90;;;;;;4970755;28;20484;-72
2022/05/06 07:32:43;;;;;;;58.13;35.30;;;11.90;99.90;;;;;;4973012;28;20448;-72
2022/05/06 07:35:09;;;;;;;58.85;34.20;;;12.00;99.90;;;;;;4974353;28;20054;-72
2022/05/06 07:37:34;;;;;;;59.88;34.58;;;12.10;99.90;;;;;;4974534;28;20053;-73
2022/05/06 07:40:01;;;;;;;55.28;33.13;;;12.20;99.90;;;;;;4974321;28;20061;-72
2022/05/06 07:42:30;;;;;;;53.30;32.38;;;12.30;99.90;;;;;;4975560;28;20629;-72
2022/05/06 07:45:00;;;;;;;54.05;32.88;;;12.40;99.90;;;;;;4974705;28;20457;-72
2022/05/06 07:47:26;;;;;;;54.45;32.35;;;12.50;99.90;;;;;;4974361;28;20093;-72
2022/05/06 07:49:52;;;;;;;47.42;30.75;;;12.50;99.90;;;;;;4957159;28;20452;-72
2022/05/06 07:52:18;;;;;;;49.05;32.28;;;12.70;99.90;;;;;;4974293;28;20046;-72
2022/05/06 07:54:44;;;;;;;47.05;29.50;;;12.80;99.90;;;;;;4957630;28;20515;-72
2022/05/06 07:57:09;;;;;;;44.00;28.42;;;12.70;99.90;;;;;;4973010;28;20129;-72
2022/05/06 07:59:35;;;;;;;43.17;26.58;;;12.70;99.90;;;;;;4956872;28;20031;-72
2022/05/06 08:04:51;;;;;;;37.78;23.88;;;12.70;99.90;;;;;;4972981;28;20043;-72
2022/05/06 08:07:17;;;;;;;36.92;25.13;;;12.80;99.90;;;;;;4973985;28;20077;-72
2022/05/06 08:09:43;;;;;;;32.85;23.70;;;12.80;99.90;;;;;;4972296;28;20051;-72
2022/05/06 08:12:10;;;;;;;32.63;22.55;;;13.00;99.90;;;;;;4973025;28;20412;-72
2022/05/06 08:14:36;;;;;;;29.55;20.55;;;13.00;99.90;;;;;;4972792;28;20304;-72
2022/05/06 08:17:03;;;;;;;33.03;22.25;;;13.10;99.90;;;;;;4972232;28;20404;-72
2022/05/06 08:19:29;;;;;;;28.50;19.88;;;13.40;99.90;;;;;;4972434;28;20125;-72
2022/05/06 08:21:55;;;;;;;27.95;19.70;;;13.60;99.90;;;;;;4972920;28;20412;-72
2022/05/06 08:24:21;;;;;;;29.50;20.02;;;13.70;99.90;;;;;;4972634;28;20061;-72
2022/05/06 08:26:50;;;;;;;31.50;20.77;;;13.90;99.90;;;;;;4953776;28;20125;-72
2022/05/06 08:29:16;;;;;;;26.10;18.70;;;14.00;99.90;;;;;;4973621;28;20716;-74
2022/05/06 08:31:41;;;;;;;23.98;17.65;;;14.10;99.90;;;;;;4972319;28;20066;-74
2022/05/06 08:34:09;;;;;;;25.60;16.92;;;14.20;99.90;;;;;;4972541;28;20097;-74
2022/05/06 08:36:36;;;;;;;24.10;16.98;;;14.50;99.90;;;;;;4972272;28;20143;-73
2022/05/06 08:39:06;;;;;;;23.38;16.95;;;14.60;99.90;;;;;;4972775;28;20039;-73
2022/05/06 08:41:33;;;;;;;22.13;16.15;;;14.70;99.90;;;;;;4972943;28;20039;-72
2022/05/06 08:50:50;;;;;;;25.60;18.02;;;14.80;99.90;;;;;;4972752;28;20039;-72
2022/05/06 08:52:26;;;;;;;24.88;17.25;;;15.10;99.90;;;;;;4969033;28;20043;-72
2022/05/06 08:54:52;;;;;;;26.05;17.17;;;15.40;99.90;;;;;;4972930;28;20047;-73
2022/05/06 08:57:18;;;;;;;21.42;16.13;;;15.50;99.90;;;;;;4972978;28;20072;-73
2022/05/06 08:59:51;;;;;;;25.05;16.88;;;15.50;99.90;;;;;;4972540;28;20057;-72
2022/05/06 09:02:16;;;;;;;24.27;17.58;;;15.60;99.90;;;;;;4973151;28;20105;-72
2022/05/06 09:04:42;;;;;;;26.33;17.65;;;15.60;99.90;;;;;;4968079;28;20489;-74
2022/05/06 09:07:19;;;;;;;24.15;18.05;;;15.80;99.90;;;;;;4973933;28;20047;-73
2022/05/06 09:10:14;;;;;;;24.88;17.75;;;16.00;99.90;;;;;;4972692;28;20080;-73
2022/05/06 09:12:42;;;;;;;21.90;15.68;;;16.20;99.90;;;;;;4972967;28;20043;-73
2022/05/06 09:17:55;;;;;;;22.00;15.55;;;16.30;99.90;;;;;;4972542;28;20046;-72
2022/05/06 09:20:21;;;;;;;20.95;15.48;;;16.40;99.90;;;;;;4972720;28;20034;-72
2022/05/06 09:22:50;;;;;;;22.20;16.08;;;16.50;99.90;;;;;;4972697;28;20030;-72
2022/05/06 09:25:34;;;;;;;19.90;15.30;;;16.50;99.90;;;;;;4972648;28;20054;-72
2022/05/06 09:28:00;;;;;;;14.60;11.57;;;16.90;99.90;;;;;;4972408;28;20035;-72
2022/05/06 09:30:25;;;;;;;15.18;11.38;;;17.00;99.90;;;;;;4972260;28;20503;-72
2022/05/06 09:32:51;;;;;;;15.90;13.10;;;17.30;99.90;;;;;;4956405;28;20039;-73
2022/05/06 09:35:18;;;;;;;13.70;11.25;;;17.60;99.90;;;;;;4972504;28;20401;-73
2022/05/06 09:37:48;;;;;;;14.98;12.10;;;17.60;99.90;;;;;;4972356;28;20126;-73
2022/05/06 09:40:27;;;;;;;13.77;10.57;;;17.80;99.90;;;;;;4971808;28;20034;-73
2022/05/06 09:42:57;;;;;;;11.40;10.20;;;17.90;99.90;;;;;;4971922;28;20077;-73
2022/05/06 09:45:40;;;;;;;10.45;9.40;;;18.00;99.90;;;;;;4972009;28;20089;-73
2022/05/06 09:48:08;;;;;;;9.88;8.88;;;18.30;99.90;;;;;;4970401;28;20027;-73
2022/05/06 09:50:37;;;;;;;10.75;9.65;;;18.30;99.90;;;;;;4971775;28;20081;-73
2022/05/06 09:53:05;;;;;;;9.93;8.93;;;18.30;99.90;;;;;;4972456;28;20390;-73
2022/05/06 09:55:30;;;;;;;9.80;8.80;;;18.50;99.90;;;;;;4970984;28;20039;-73
2022/05/06 09:57:59;;;;;;;9.68;8.77;;;18.60;99.90;;;;;;4964145;28;20051;-73
2022/05/06 10:00:27;;;;;;;8.95;8.15;;;18.60;99.90;;;;;;4967243;28;20046;-72
2022/05/06 10:02:53;;;;;;;8.38;7.57;;;18.70;99.90;;;;;;4950881;29;20050;-73
2022/05/06 10:05:18;;;;;;;8.63;7.82;;;18.70;99.90;;;;;;4971607;28;20043;-73
2022/05/06 10:07:44;;;;;;;7.88;7.18;;;18.90;99.90;;;;;;4969883;28;20049;-73
2022/05/06 10:10:18;;;;;;;10.65;6.30;;;19.10;99.90;;;;;;4969885;28;20039;-74
2022/05/06 10:12:52;;;;;;;6.35;5.85;;;19.30;99.90;;;;;;4969111;28;20074;-73
2022/05/06 10:15:20;;;;;;;6.10;5.60;;;19.60;99.90;;;;;;4970607;28;20041;-74
2022/05/06 10:18:03;;;;;;;8.85;6.20;;;19.80;99.90;;;;;;4971749;28;20174;-73
2022/05/06 10:20:38;;;;;;;6.60;6.00;;;19.70;99.90;;;;;;4971693;28;20200;-73
2022/05/06 10:23:08;;;;;;;6.20;5.35;;;19.90;99.90;;;;;;4956044;28;20064;-73
2022/05/06 10:25:40;;;;;;;5.90;5.40;;;20.10;99.10;;;;;;4971890;28;20039;-73
2022/05/06 10:34:23;;;;;;;5.10;4.63;;;20.70;99.90;;;;;;4955412;28;20053;-73
2022/05/06 10:36:53;;;;;;;4.90;4.40;;;21.00;97.80;;;;;;4971589;28;20097;-73
2022/05/06 10:39:36;;;;;;;3.88;3.58;;;21.00;94.10;;;;;;4955572;28;20054;-73
2022/05/06 10:42:01;;;;;;;;;;;21.10;94.10;;;;;;4972108;28;20505;-73
2022/05/06 10:44:31;;;;;;;5.20;4.70;;;21.30;93.90;;;;;;4971631;28;19965;-73
2022/05/06 10:46:57;;;;;;;5.32;4.50;;;21.50;91.40;;;;;;4971514;28;20085;-73
2022/05/06 10:49:35;;;;;;;5.63;3.78;;;21.60;86.40;;;;;;4971614;28;20046;-73
2022/05/06 10:52:16;;;;;;;4.63;3.88;;;21.70;86.00;;;;;;4955545;28;20051;-73
2022/05/06 10:54:44;;;;;;;6.15;4.15;;;21.60;83.50;;;;;;4971739;28;20129;-73
2022/05/06 10:57:10;;;;;;;3.90;3.50;;;21.80;82.40;;;;;;4971301;28;20042;-73
2022/05/06 10:59:49;;;;;;;5.07;4.07;;;21.90;79.50;;;;;;4971269;28;20069;-73
2022/05/06 11:02:16;;;;;;;4.82;4.43;;;21.90;78.40;;;;;;4971733;28;20369;-73
2022/05/06 11:04:54;;;;;;;5.45;4.80;;;21.70;73.70;;;;;;4971576;28;20050;-73
2022/05/06 11:07:20;;;;;;;5.18;4.68;;;21.70;73.20;;;;;;4972849;28;20059;-73
2022/05/06 11:09:47;;;;;;;5.88;5.20;;;21.50;71.40;;;;;;4974947;28;20073;-73
2022/05/06 11:12:33;;;;;;;5.35;4.57;;;21.40;73.50;;;;;;4975068;28;20085;-73
2022/05/06 11:14:59;;;;;;;5.70;4.95;;;21.40;77.70;;;;;;4975468;28;20047;-73
2022/05/06 11:17:25;;;;;;;7.22;4.70;;;21.70;76.10;;;;;;4974705;28;20130;-73
2022/05/06 11:19:51;;;;;;;4.75;4.35;;;22.00;75.20;;;;;;4958715;28;20081;-72
2022/05/06 11:22:17;;;;;;;4.30;3.70;;;22.30;74.20;;;;;;4974897;28;20081;-73
2022/05/06 11:24:46;;;;;;;3.85;3.38;;;22.40;71.10;;;;;;4974938;28;20456;-73
2022/05/06 11:27:16;;;;;;;4.15;3.50;;;22.60;67.10;;;;;;4974952;28;20109;-73
2022/05/06 11:29:55;;;;;;;3.55;3.25;;;22.60;65.00;;;;;;4974572;28;20043;-73
2022/05/06 11:32:26;;;;;;;3.60;3.30;;;22.90;63.50;;;;;;4974943;28;20382;-73
2022/05/06 11:35:01;;;;;;;6.95;3.40;;;23.10;64.00;;;;;;4974848;28;20035;-73
2022/05/06 11:37:31;;;;;;;4.93;3.60;;;23.10;60.50;;;;;;4958403;28;20042;-74
2022/05/06 11:42:41;;;;;;;3.28;2.65;;;23.50;58.20;;;;;;4974582;28;20058;-74
2022/05/06 11:48:07;;;;;;;4.57;2.53;;;23.20;56.20;;;;;;4974330;28;20052;-74
2022/05/06 11:50:33;;;;;;;4.20;2.72;;;23.10;54.70;;;;;;4974160;28;20031;-74
2022/05/06 11:53:01;;;;;;;4.13;3.20;;;22.90;58.40;;;;;;4974275;28;20035;-73
2022/05/06 11:55:28;;;;;;;3.78;3.13;;;23.10;57.10;;;;;;4958191;28;20173;-73
2022/05/06 11:57:56;;;;;;;4.88;3.10;;;23.10;58.40;;;;;;4974079;28;20038;-73
2022/05/06 12:00:22;;;;;;;3.53;3.00;;;23.40;58.70;;;;;;4974310;28;20082;-73
2022/05/06 12:02:49;;;;;;;7.78;3.45;;;23.50;59.10;;;;;;4974181;28;20473;-73
2022/05/06 12:05:15;;;;;;;5.50;3.35;;;23.50;55.70;;;;;;4974421;28;20627;-73
2022/05/06 12:07:47;;;;;;;5.22;3.10;;;23.40;59.00;;;;;;4974199;28;20086;-73
2022/05/06 12:10:25;;;;;;;5.22;3.38;;;23.60;57.80;;;;;;4973784;28;20093;-74
2022/05/06 12:12:59;;;;;;;4.80;3.13;;;23.60;57.20;;;;;;4974269;28;20442;-75
2022/05/06 12:15:43;;;;;;;5.25;3.15;;;23.50;55.80;;;;;;4974155;28;20458;-74
2022/05/06 12:18:21;;;;;;;5.05;3.83;;;23.50;59.50;;;;;;4973289;28;20062;-73
2022/05/06 12:20:47;;;;;;;3.50;3.20;;;23.50;57.80;;;;;;4973592;28;20039;-73
2022/05/06 12:23:14;;;;;;;5.35;3.00;;;23.60;58.10;;;;;;4974056;28;20397;-73
2022/05/06 12:25:41;;;;;;;5.18;3.00;;;23.60;57.20;;;;;;4973925;28;20469;-74
2022/05/06 12:28:07;;;;;;;4.53;3.25;;;23.30;56.70;;;;;;4973682;28;20524;-74
2022/05/06 12:30:34;;;;;;;3.90;2.85;;;23.70;59.80;;;;;;4973680;28;20042;-73
2022/05/06 12:33:07;;;;;;;7.63;3.80;;;23.90;57.70;;;;;;4973902;28;20085;-73
2022/05/06 12:36:05;;;;;;;3.75;3.30;;;23.90;55.20;;;;;;4973815;28;20398;-74
2022/05/06 12:38:40;;;;;;;5.22;2.70;;;23.60;55.40;;;;;;4973710;28;20488;-73
2022/05/06 12:41:20;;;;;;;5.22;2.33;;;23.90;58.40;;;;;;4973492;28;20409;-73
2022/05/06 12:43:46;;;;;;;3.25;2.70;;;24.10;57.10;;;;;;4973634;28;20393;-73
2022/05/06 12:46:28;;;;;;;8.40;3.55;;;24.10;58.10;;;;;;4973343;28;20039;-73
2022/05/06 12:51:40;;;;;;;7.22;3.88;;;24.40;58.20;;;;;;4973252;28;20468;-73
2022/05/06 12:54:06;;;;;;;4.18;3.50;;;24.50;57.40;;;;;;4973240;28;20412;-73
2022/05/06 12:56:32;;;;;;;8.68;3.80;;;24.50;56.50;;;;;;4972935;28;20053;-73
2022/05/06 12:58:58;;;;;;;6.18;4.35;;;24.40;56.10;;;;;;4973159;28;20086;-73
2022/05/06 13:01:24;;;;;;;7.70;4.95;;;24.30;56.20;;;;;;4972963;28;20551;-73
2022/05/06 13:03:49;;;;;;;5.35;4.82;;;24.00;54.40;;;;;;4973384;28;20489;-73
2022/05/06 13:06:15;;;;;;;6.72;5.00;;;23.90;57.90;;;;;;4973407;28;20042;-73
2022/05/06 13:08:41;;;;;;;6.13;5.20;;;23.90;57.90;;;;;;4973061;28;20042;-73
2022/05/06 13:11:07;;;;;;;5.25;4.10;;;24.20;56.90;;;;;;4972868;28;20043;-73
2022/05/06 13:13:32;;;;;;;6.05;3.75;;;24.30;56.80;;;;;;4973099;28;20133;-73
2022/05/06 13:15:59;;;;;;;6.65;5.03;;;24.50;56.80;;;;;;4972801;28;20039;-73
2022/05/06 13:18:25;;;;;;;7.35;5.10;;;24.70;57.30;;;;;;5026758;23;20125;-73
2022/05/06 13:20:51;;;;;;;5.88;4.30;;;24.70;57.20;;;;;;5003527;28;20554;-74
2022/05/06 13:23:16;;;;;;;4.97;3.17;;;24.90;57.10;;;;;;4995415;28;20069;-74
2022/05/06 13:25:42;;;;;;;4.32;3.40;;;25.00;55.50;;;;;;4995602;28;20144;-74
2022/05/06 13:28:08;;;;;;;6.97;4.72;;;25.00;54.10;;;;;;5012745;28;20038;-73
2022/05/06 13:30:34;;;;;;;4.63;3.85;;;24.60;54.30;;;;;;4995069;28;20495;-73